Terminal Aerodrome Forecast
Issued by NWS

Home | Current Version | Previous Version | Text Only | Print | Product List | Glossary On
Versions: 1 2 3 4 5 6 7 8 9 10 11 12 13 14 15
000
FTUS45 KVEF 262320
TAFHND
TAF
KHND 262320Z 2700/2724 22020G30KT P6SM SKC
     FM271000 24015G22KT P6SM SKC
     FM271400 20011KT P6SM SKC
     FM271700 VRB05KT P6SM SKC
     FM272200 22012G20KT P6SM SKC=

USA.gov is the U.S. government's official web portal to all federal, state and local government web resources and services.